Time;durP1;ratioP1;P1;durP2;ratioP2;P2;SDS_P1;SDS_P2;PMS_P1;PMS_P2;Temp;Humidity;BMP_temperature;BMP_pressure;BME280_temperature;BME280_humidity;BME280_pressure;Samples;Min_cycle;Max_cycle;Signal;HPM_P1;HPM_P2
2021/10/14 00:04:04;;;;;;;12.00;7.60;;;;;;;1.08;76.10;100416.05;230669;1192;139506;-65
2021/10/14 00:09:08;;;;;;;14.60;8.30;;;;;;;1.01;76.48;100421.14;231137;1192;139361;-65
2021/10/14 00:14:12;;;;;;;15.20;8.70;;;;;;;1.09;76.28;100422.96;230623;1192;139621;-65
2021/10/14 00:19:16;;;;;;;14.80;9.30;;;;;;;1.14;76.50;100418.10;231071;1192;141049;-64
2021/10/14 00:24:19;;;;;;;12.90;7.60;;;;;;;1.17;76.81;100417.82;229480;1192;139219;-64
2021/10/14 00:29:23;;;;;;;15.70;9.40;;;;;;;1.11;76.59;100410.36;230281;1192;139401;-64
2021/10/14 00:34:27;;;;;;;18.50;10.70;;;;;;;0.98;76.40;100410.27;230376;1192;140510;-62
2021/10/14 00:39:31;;;;;;;18.10;11.50;;;;;;;0.95;76.73;100411.62;229867;1192;139749;-62
2021/10/14 00:44:53;;;;;;;16.90;11.40;;;;;;;0.91;76.59;100409.93;230036;1192;139578;-63
2021/10/14 00:49:59;;;;;;;22.40;14.20;;;;;;;0.77;76.36;100413.08;230085;1192;139927;-63
2021/10/14 00:55:06;;;;;;;16.60;9.00;;;;;;;0.66;76.38;100411.27;229539;1192;140269;-63
2021/10/14 01:00:11;;;;;;;26.60;13.10;;;;;;;0.53;76.65;100409.95;229688;1192;141087;-63
2021/10/14 01:05:15;;;;;;;18.70;10.40;;;;;;;0.46;76.51;100408.87;229406;1192;140889;-65
2021/10/14 01:10:19;;;;;;;17.60;13.10;;;;;;;0.44;76.94;100409.44;229559;1192;140336;-64
2021/10/14 01:15:26;;;;;;;15.60;10.20;;;;;;;0.44;77.11;100404.36;229566;1192;140338;-65
2021/10/14 01:20:31;;;;;;;23.40;10.70;;;;;;;0.33;77.11;100395.33;229504;1192;140500;-65
2021/10/14 01:25:36;;;;;;;18.90;10.10;;;;;;;0.24;77.17;100395.40;229723;1192;139693;-66
2021/10/14 01:30:41;;;;;;;17.40;11.90;;;;;;;0.24;77.07;100392.78;229645;1192;151759;-65
2021/10/14 01:36:05;;;;;;;23.70;13.10;;;;;;;0.26;77.36;100394.41;230565;1192;140371;-66
2021/10/14 01:41:10;;;;;;;19.30;12.00;;;;;;;0.20;77.39;100388.72;229699;1192;140728;-65
2021/10/14 01:46:15;;;;;;;20.60;10.10;;;;;;;0.15;77.83;100382.94;230004;1192;140079;-65
2021/10/14 01:51:19;;;;;;;16.80;10.50;;;;;;;0.13;77.34;100386.55;229201;1193;140305;-66
2021/10/14 01:56:24;;;;;;;21.20;12.30;;;;;;;0.16;77.46;100395.46;231025;1192;141443;-66
2021/10/14 02:01:28;;;;;;;24.10;11.10;;;;;;;0.22;77.63;100388.70;229183;1192;152296;-64
2021/10/14 02:06:34;;;;;;;17.30;11.20;;;;;;;0.29;78.04;100399.39;231155;1192;140819;-64
2021/10/14 02:11:39;;;;;;;16.50;10.20;;;;;;;0.34;77.79;100398.70;231259;1192;141571;-65
2021/10/14 02:16:44;;;;;;;19.10;11.30;;;;;;;0.37;77.53;100407.71;231321;1192;140301;-66
2021/10/14 02:21:50;;;;;;;17.80;12.20;;;;;;;0.34;77.42;100406.44;231448;1192;139724;-66
2021/10/14 02:26:54;;;;;;;18.10;10.50;;;;;;;0.26;77.40;100410.70;230022;1193;139699;-66
2021/10/14 02:31:59;;;;;;;17.60;11.30;;;;;;;0.15;77.48;100416.00;230607;1192;140450;-63
2021/10/14 02:37:03;;;;;;;23.80;13.50;;;;;;;0.12;77.74;100418.23;230649;1192;140610;-65
2021/10/14 02:42:09;;;;;;;21.00;13.80;;;;;;;0.12;77.53;100426.65;230361;1192;140164;-66
2021/10/14 02:47:17;;;;;;;23.00;14.40;;;;;;;0.15;77.84;100433.08;230337;1192;141275;-65
2021/10/14 02:52:23;;;;;;;20.00;14.30;;;;;;;0.24;77.86;100431.42;230070;1192;140558;-65
2021/10/14 02:57:27;;;;;;;18.90;11.00;;;;;;;0.24;78.08;100430.50;229651;1192;140325;-63
2021/10/14 03:02:33;;;;;;;23.90;14.40;;;;;;;0.17;77.87;100421.03;229444;1192;142792;-64
2021/10/14 03:07:38;;;;;;;40.90;24.50;;;;;;;0.16;78.45;100413.68;229309;1192;141040;-63
2021/10/14 03:12:43;;;;;;;41.70;27.00;;;;;;;0.23;78.53;100419.09;229304;1192;141660;-63
2021/10/14 03:17:47;;;;;;;53.20;31.10;;;;;;;0.30;78.85;100428.13;229509;1192;141895;-63
2021/10/14 03:22:51;;;;;;;46.20;27.40;;;;;;;0.35;78.88;100432.54;229803;1192;158542;-63
2021/10/14 03:27:55;;;;;;;43.60;22.20;;;;;;;0.35;78.88;100428.18;229942;1192;139324;-62
2021/10/14 03:33:00;;;;;;;53.60;32.60;;;;;;;0.36;79.38;100437.56;229809;1192;139855;-62
2021/10/14 03:38:04;;;;;;;47.80;30.70;;;;;;;0.44;79.09;100438.35;230254;1192;139582;-63
2021/10/14 03:43:09;;;;;;;48.60;32.80;;;;;;;0.58;79.76;100441.95;230427;1192;141423;-66
2021/10/14 03:48:14;;;;;;;51.40;31.90;;;;;;;0.69;79.86;100441.69;229615;1192;141271;-66
2021/10/14 03:53:19;;;;;;;44.40;29.60;;;;;;;0.75;79.83;100439.92;230358;1192;143122;-66
2021/10/14 03:58:23;;;;;;;48.70;30.30;;;;;;;0.84;79.43;100437.90;230821;1191;140510;-66
2021/10/14 04:03:28;;;;;;;49.60;34.10;;;;;;;0.90;79.53;100439.97;230612;1192;139392;-66
2021/10/14 04:08:33;;;;;;;31.80;21.80;;;;;;;0.86;79.37;100430.52;230122;1192;139212;-65
2021/10/14 04:13:38;;;;;;;44.00;30.20;;;;;;;0.79;79.53;100429.66;230562;1192;141043;-66
2021/10/14 04:18:43;;;;;;;38.90;26.90;;;;;;;0.80;79.22;100432.90;231164;1191;139842;-66
2021/10/14 04:23:48;;;;;;;31.50;24.40;;;;;;;0.82;79.23;100428.92;231197;1192;139706;-66
2021/10/14 04:28:52;;;;;;;37.60;27.00;;;;;;;0.79;79.60;100429.33;231357;1192;140989;-67
2021/10/14 04:33:58;;;;;;;32.10;24.10;;;;;;;0.80;79.58;100432.06;230666;1192;139772;-65
2021/10/14 04:39:05;;;;;;;43.70;27.00;;;;;;;0.80;79.68;100434.81;230932;1192;139154;-66
2021/10/14 04:44:10;;;;;;;41.40;25.60;;;;;;;0.87;79.74;100439.71;229981;1191;140914;-66
2021/10/14 04:49:17;;;;;;;40.20;26.00;;;;;;;0.90;79.43;100443.06;230387;1191;139506;-65
2021/10/14 04:54:22;;;;;;;36.50;28.50;;;;;;;0.94;79.75;100450.77;229997;1192;139400;-66
2021/10/14 04:59:26;;;;;;;42.20;24.20;;;;;;;0.95;79.75;100445.88;230150;1192;139609;-66
2021/10/14 05:04:30;;;;;;;43.30;26.30;;;;;;;0.94;79.36;100446.34;230423;1192;139942;-65
2021/10/14 05:09:35;;;;;;;34.10;24.10;;;;;;;0.90;78.96;100445.23;229389;1192;140826;-63
2021/10/14 05:14:40;;;;;;;34.20;18.80;;;;;;;0.79;79.20;100438.95;229449;1192;139728;-64
2021/10/14 05:19:45;;;;;;;35.60;24.00;;;;;;;0.72;79.31;100437.60;229880;1192;140151;-62
2021/10/14 05:24:49;;;;;;;29.80;21.70;;;;;;;0.74;79.34;100434.23;229422;1192;140729;-65
2021/10/14 05:29:53;;;;;;;25.40;14.40;;;;;;;0.79;79.91;100434.99;229330;1191;141200;-66
2021/10/14 05:34:59;;;;;;;43.00;23.20;;;;;;;0.80;79.77;100436.22;230351;1191;140065;-65
2021/10/14 05:40:05;;;;;;;30.80;19.80;;;;;;;0.91;79.93;100439.98;229736;1191;141257;-65
2021/10/14 05:45:10;;;;;;;30.50;20.40;;;;;;;1.10;79.67;100437.80;229475;1192;140606;-65
2021/10/14 05:50:14;;;;;;;35.70;22.20;;;;;;;1.17;79.92;100433.11;230039;1192;139873;-66
2021/10/14 05:55:18;;;;;;;43.80;24.30;;;;;;;1.29;80.24;100435.98;230049;1192;140018;-65
2021/10/14 06:00:23;;;;;;;31.90;22.20;;;;;;;1.50;79.77;100443.23;229987;1192;140508;-66
2021/10/14 06:05:28;;;;;;;33.70;23.20;;;;;;;1.74;80.21;100440.61;231027;1192;140158;-66
2021/10/14 06:10:32;;;;;;;22.30;15.20;;;;;;;1.97;80.26;100441.21;231347;1191;140335;-66
2021/10/14 06:15:37;;;;;;;29.90;18.40;;;;;;;2.22;79.86;100441.08;231388;1191;139848;-68
2021/10/14 06:20:41;;;;;;;27.20;20.20;;;;;;;2.49;80.23;100441.77;231072;1192;139926;-68
2021/10/14 06:25:45;;;;;;;32.90;18.30;;;;;;;2.64;79.95;100435.09;230925;1191;140754;-66
2021/10/14 06:30:48;;;;;;;18.50;13.00;;;;;;;2.75;79.85;100442.30;230670;1191;139445;-66
2021/10/14 06:35:53;;;;;;;28.70;18.40;;;;;;;2.83;79.71;100442.00;230457;1192;139416;-66
2021/10/14 06:40:58;;;;;;;29.80;18.90;;;;;;;2.93;79.55;100439.15;230177;1192;139631;-65
2021/10/14 06:46:03;;;;;;;28.60;19.60;;;;;;;3.03;79.67;100439.52;229727;1192;140011;-66
2021/10/14 06:51:08;;;;;;;22.50;17.10;;;;;;;3.37;80.32;100436.84;229479;1191;210044;-64
2021/10/14 06:56:13;;;;;;;28.80;18.50;;;;;;;3.79;80.40;100442.63;230793;1192;139425;-65
2021/10/14 07:01:19;;;;;;;29.30;19.20;;;;;;;4.18;80.06;100438.29;230026;1191;141312;-63
2021/10/14 07:06:25;;;;;;;;;;;;;;;4.49;80.13;100433.56;229043;1193;139818;-62
2021/10/14 07:11:40;;;;;;;25.90;15.80;;;;;;;4.69;80.44;100434.98;230395;1186;126397;-63
2021/10/14 07:16:45;;;;;;;25.60;19.40;;;;;;;4.92;79.81;100438.96;229981;1192;139619;-62
2021/10/14 07:21:49;;;;;;;23.60;12.30;;;;;;;5.22;80.10;100437.95;229181;1192;140845;-61
2021/10/14 07:26:54;;;;;;;19.60;14.90;;;;;;;5.49;80.27;100440.33;229382;1191;139726;-62
2021/10/14 07:31:59;;;;;;;21.00;13.50;;;;;;;5.73;80.19;100439.63;229567;1191;139398;-63
2021/10/14 07:37:05;;;;;;;22.70;17.20;;;;;;;6.07;79.72;100440.63;229769;1192;140207;-63
2021/10/14 07:42:09;;;;;;;16.90;12.90;;;;;;;6.46;80.02;100441.36;230081;1191;140135;-63
2021/10/14 07:47:15;;;;;;;15.90;12.90;;;;;;;6.76;79.68;100438.37;229515;1192;139578;-65
2021/10/14 07:52:19;;;;;;;18.10;11.20;;;;;;;6.97;79.51;100436.09;230062;1191;150512;-64
2021/10/14 07:57:24;;;;;;;19.70;12.90;;;;;;;7.14;79.23;100440.99;230653;1192;139909;-65
2021/10/14 08:02:28;;;;;;;18.10;12.10;;;;;;;7.29;78.87;100442.19;230291;1191;140245;-68
2021/10/14 08:07:33;;;;;;;15.00;11.70;;;;;;;7.55;79.04;100439.66;229890;1192;141006;-66
2021/10/14 08:12:38;;;;;;;16.10;11.70;;;;;;;7.85;78.74;100437.73;230968;1192;140017;-67
2021/10/14 08:17:44;;;;;;;11.80;10.20;;;;;;;8.03;78.05;100436.83;231373;1191;141032;-66
2021/10/14 08:22:49;;;;;;;17.70;10.80;;;;;;;8.21;77.91;100434.27;230664;1192;140504;-64
2021/10/14 08:27:53;;;;;;;14.60;9.10;;;;;;;8.40;77.50;100437.04;231136;1191;140673;-68
2021/10/14 08:32:58;;;;;;;12.70;10.60;;;;;;;8.57;77.21;100432.42;230940;1192;142647;-65
2021/10/14 08:38:06;;;;;;;12.90;9.60;;;;;;;8.74;77.08;100432.88;230947;1192;140214;-66
2021/10/14 08:43:15;;;;;;;15.70;9.60;;;;;;;8.93;76.69;100429.16;230105;1191;142708;-65
2021/10/14 08:48:20;;;;;;;13.10;11.10;;;;;;;9.23;76.75;100417.71;230504;1191;141995;-65
2021/10/14 08:53:24;;;;;;;9.80;8.30;;;;;;;9.46;76.47;100410.61;228416;1192;140489;-66
2021/10/14 08:58:29;;;;;;;15.20;10.80;;;;;;;9.63;76.04;100408.90;230527;1183;140497;-66
2021/10/14 09:03:36;;;;;;;15.20;11.40;;;;;;;9.91;75.67;100403.38;229469;1192;141328;-66
2021/10/14 09:08:52;;;;;;;16.00;10.10;;;;;;;10.05;75.12;100401.04;230055;1192;141253;-66
2021/10/14 09:14:06;;;;;;;8.70;7.40;;;;;;;10.20;75.19;100397.91;229560;1191;139451;-65
2021/10/14 09:19:21;;;;;;;9.10;6.00;;;;;;;10.39;74.80;100395.90;229985;1191;139812;-69
2021/10/14 09:24:30;;;;;;;10.60;7.50;;;;;;;10.60;74.15;100394.17;229470;1191;140524;-66
2021/10/14 09:29:37;;;;;;;13.50;7.40;;;;;;;10.71;73.95;100391.80;229264;1177;140708;-65
2021/10/14 09:34:43;;;;;;;10.80;6.70;;;;;;;10.73;73.16;100396.38;229979;1191;140611;-65
2021/10/14 09:40:14;;;;;;;7.70;6.30;;;;;;;10.77;73.05;100401.02;229570;1191;140397;-65
2021/10/14 09:45:21;;;;;;;88.00;41.10;;;;;;;10.82;72.59;100400.77;228945;1192;141474;-67
2021/10/14 09:50:28;;;;;;;15.70;9.30;;;;;;;10.71;72.30;100403.79;230102;1192;142571;-67
2021/10/14 09:55:33;;;;;;;11.50;8.60;;;;;;;10.69;72.12;100398.61;229808;1192;140154;-68
2021/10/14 10:00:38;;;;;;;10.40;5.80;;;;;;;10.73;72.00;100390.51;229968;1191;141963;-66
2021/10/14 10:05:47;;;;;;;8.80;7.70;;;;;;;10.73;71.96;100390.39;230033;1191;139615;-67
2021/10/14 10:10:54;;;;;;;8.10;6.40;;;;;;;10.70;71.79;100378.11;229158;1192;140650;-67
2021/10/14 10:16:17;;;;;;;9.80;8.50;;;;;;;10.72;71.65;100373.99;229141;1192;143069;-74
2021/10/14 10:21:31;;;;;;;9.90;7.80;;;;;;;10.75;71.80;100375.48;230681;1191;142035;-67
2021/10/14 10:26:35;;;;;;;8.80;6.00;;;;;;;10.73;71.76;100378.83;230970;1192;151656;-73
2021/10/14 10:31:49;;;;;;;8.30;6.60;;;;;;;10.69;71.36;100377.11;231046;1192;138812;-68
2021/10/14 10:36:53;;;;;;;6.80;5.60;;;;;;;10.69;70.91;100371.91;230581;1191;140746;-67
2021/10/14 10:42:19;;;;;;;4.30;3.90;;;;;;;10.75;70.96;100365.50;230770;1191;140633;-70
2021/10/14 10:47:56;;;;;;;8.00;6.10;;;;;;;10.83;70.73;100352.39;230238;1191;139512;-68
2021/10/14 10:53:06;;;;;;;7.40;5.60;;;;;;;10.93;70.25;100343.14;230508;1192;142420;-68
2021/10/14 10:58:35;;;;;;;5.00;4.30;;;;;;;11.00;70.05;100336.55;230239;1191;139130;-68
2021/10/14 11:03:51;;;;;;;8.50;5.20;;;;;;;11.08;70.15;100328.30;229254;1191;140056;-68
2021/10/14 11:09:11;;;;;;;4.40;4.00;;;;;;;11.15;69.45;100322.15;230381;1192;140486;-67
2021/10/14 11:14:16;;;;;;;5.70;3.80;;;;;;;11.07;69.33;100318.98;229592;1191;140457;-68
2021/10/14 11:19:22;;;;;;;5.60;3.90;;;;;;;11.10;69.47;100319.16;229671;1192;139378;-67
2021/10/14 11:24:31;;;;;;;5.20;3.90;;;;;;;11.10;69.39;100316.66;229450;1192;139513;-68
2021/10/14 11:29:37;;;;;;;4.40;4.00;;;;;;;11.14;69.19;100313.09;228900;1191;140200;-68
2021/10/14 11:34:41;;;;;;;3.80;3.50;;;;;;;11.10;68.81;100303.15;229571;1191;139495;-68
2021/10/14 11:39:48;;;;;;;4.50;4.00;;;;;;;11.04;68.63;100300.31;229437;1192;234588;-68
2021/10/14 11:44:57;;;;;;;5.80;3.50;;;;;;;10.89;68.24;100295.00;229233;1191;139205;-69
2021/10/14 11:50:06;;;;;;;4.40;3.50;;;;;;;10.94;68.52;100302.14;229270;1192;140015;-71
2021/10/14 11:55:10;;;;;;;3.90;3.20;;;;;;;11.01;68.31;100297.41;229707;1192;140086;-70
2021/10/14 12:00:14;;;;;;;4.70;2.70;;;;;;;10.99;68.31;100285.62;229427;1193;139085;-70
2021/10/14 12:05:20;;;;;;;4.10;3.60;;;;;;;10.95;68.32;100278.95;229977;1192;139199;-70
2021/10/14 12:10:32;;;;;;;8.80;4.00;;;;;;;10.86;68.11;100270.91;230437;1191;139766;-70
2021/10/14 12:15:37;;;;;;;6.60;4.10;;;;;;;10.84;68.19;100257.39;230819;1186;139358;-73
2021/10/14 12:20:41;;;;;;;2.60;2.30;;;;;;;10.91;68.28;100250.17;230904;1193;139749;-67
2021/10/14 12:25:47;;;;;;;5.90;3.50;;;;;;;10.95;68.06;100253.23;231010;1192;139773;-69
2021/10/14 12:31:10;;;;;;;7.70;4.50;;;;;;;10.91;68.08;100250.92;230130;1192;140342;-70
2021/10/14 12:36:15;;;;;;;7.50;4.30;;;;;;;10.91;67.93;100251.08;231136;1192;141308;-70
2021/10/14 12:41:20;;;;;;;7.50;4.60;;;;;;;10.92;67.90;100250.79;230952;1192;140584;-69
2021/10/14 12:51:46;;;;;;;6.30;4.20;;;;;;;10.97;68.14;100244.70;230171;1192;140606;-68
2021/10/14 12:57:01;;;;;;;8.60;4.90;;;;;;;10.97;68.13;100236.48;230027;1191;140472;-69
2021/10/14 13:02:06;;;;;;;7.50;4.60;;;;;;;11.05;68.30;100242.46;230411;1192;139402;-68
2021/10/14 13:07:14;;;;;;;5.10;4.30;;;;;;;11.06;68.28;100233.47;229777;1176;139091;-69
2021/10/14 13:12:18;;;;;;;7.70;4.30;;;;;;;10.89;67.99;100222.55;229688;1192;139817;-69
2021/10/14 13:17:23;;;;;;;6.00;5.20;;;;;;;10.77;68.01;100219.80;229457;1192;139280;-67
2021/10/14 13:22:28;;;;;;;7.50;5.10;;;;;;;10.72;68.11;100216.88;229342;1192;139536;-68
2021/10/14 13:27:33;;;;;;;5.90;5.20;;;;;;;10.66;68.18;100210.33;229422;1191;140335;-68
2021/10/14 13:32:38;;;;;;;6.10;5.10;;;;;;;10.53;68.15;100207.76;229426;1192;140815;-68
2021/10/14 13:37:46;;;;;;;11.40;7.50;;;;;;;10.45;68.56;100202.95;229600;1192;139806;-68
2021/10/14 13:42:54;;;;;;;13.70;7.30;;;;;;;10.41;68.75;100202.42;229485;1192;140697;-67
2021/10/14 13:47:59;;;;;;;5.70;4.70;;;;;;;10.43;68.64;100203.80;228951;1192;140140;-66
2021/10/14 13:53:03;;;;;;;5.80;4.10;;;;;;;10.38;68.64;100199.20;230677;1192;139037;-66
2021/10/14 13:58:09;;;;;;;9.50;6.70;;;;;;;10.35;68.75;100194.41;230353;1191;140782;-67
2021/10/14 14:03:16;;;;;;;9.20;3.90;;;;;;;10.33;68.58;100190.85;230371;1192;139247;-68
2021/10/14 14:08:21;;;;;;;10.30;6.30;;;;;;;10.33;68.79;100182.25;229915;1191;140002;-66
2021/10/14 14:13:26;;;;;;;7.70;5.00;;;;;;;10.30;68.86;100177.73;230135;1192;139527;-67
2021/10/14 14:18:32;;;;;;;6.20;4.90;;;;;;;10.22;68.80;100178.08;230205;1192;138920;-68
2021/10/14 14:23:37;;;;;;;7.40;4.90;;;;;;;10.13;68.81;100171.96;231265;1192;141431;-68
2021/10/14 14:28:44;;;;;;;9.00;4.00;;;;;;;10.05;68.94;100165.26;231311;1191;140892;-67
2021/10/14 14:33:50;;;;;;;5.30;4.40;;;;;;;10.03;69.05;100170.40;230995;1192;140726;-68
2021/10/14 14:38:54;;;;;;;7.10;4.40;;;;;;;9.96;68.73;100176.16;231000;1191;141162;-70
2021/10/14 14:43:59;;;;;;;7.40;5.10;;;;;;;9.93;68.86;100180.16;230374;1192;140716;-69
2021/10/14 14:49:06;;;;;;;7.90;5.40;;;;;;;9.94;69.06;100180.65;229725;1192;140412;-68
2021/10/14 14:54:11;;;;;;;7.00;4.30;;;;;;;9.88;68.81;100175.20;229085;1192;141840;-69
2021/10/14 14:59:15;;;;;;;9.40;6.50;;;;;;;9.76;68.81;100172.20;229856;1192;139373;-70
2021/10/14 15:04:21;;;;;;;8.20;6.00;;;;;;;9.69;68.77;100170.10;229090;1192;139991;-68
2021/10/14 15:09:47;;;;;;;7.50;5.10;;;;;;;9.63;68.94;100171.91;229048;1192;140539;-70
2021/10/14 15:14:53;;;;;;;7.20;5.10;;;;;;;9.55;69.07;100173.20;229503;1192;141009;-66
2021/10/14 15:19:57;;;;;;;7.10;5.40;;;;;;;9.46;69.14;100179.25;228676;1192;142250;-67
2021/10/14 15:25:04;;;;;;;9.90;5.00;;;;;;;9.44;69.37;100179.23;229627;1192;142718;-68
2021/10/14 15:30:10;;;;;;;10.70;7.10;;;;;;;9.44;69.59;100173.84;230591;1192;141152;-68
2021/10/14 15:35:16;;;;;;;9.50;6.20;;;;;;;9.41;69.77;100171.94;230458;1191;139518;-69
2021/10/14 15:40:22;;;;;;;9.70;5.70;;;;;;;9.38;69.85;100170.55;230453;1192;139710;-68
2021/10/14 15:45:26;;;;;;;11.50;6.00;;;;;;;9.37;69.85;100174.45;229195;1192;139355;-68
2021/10/14 15:50:31;;;;;;;11.80;6.90;;;;;;;9.38;69.94;100171.02;230230;1192;141608;-70
2021/10/14 15:55:35;;;;;;;12.40;7.40;;;;;;;9.39;69.98;100173.21;229182;1192;140447;-68
2021/10/14 16:00:41;;;;;;;30.60;6.90;;;;;;;9.38;70.10;100170.39;229129;1192;140721;-68
2021/10/14 16:05:48;;;;;;;10.10;6.30;;;;;;;9.35;70.55;100163.66;229120;1192;140990;-67
2021/10/14 16:10:53;;;;;;;10.00;7.20;;;;;;;9.31;70.99;100161.52;230123;1191;141130;-67
2021/10/14 16:15:57;;;;;;;10.60;6.30;;;;;;;9.27;71.01;100159.38;230446;1192;141519;-67
2021/10/14 16:21:02;;;;;;;10.20;8.20;;;;;;;9.24;71.64;100157.19;230383;1191;141598;-66
2021/10/14 16:26:07;;;;;;;12.90;7.60;;;;;;;9.17;71.85;100151.15;231312;1192;141904;-68
2021/10/14 16:31:11;;;;;;;11.50;7.00;;;;;;;9.16;72.10;100149.20;231107;1192;139818;-68
2021/10/14 16:36:16;;;;;;;11.20;7.40;;;;;;;9.25;72.25;100153.21;231069;1191;140218;-68
2021/10/14 16:41:20;;;;;;;10.10;6.40;;;;;;;9.23;72.32;100146.67;230987;1192;141957;-69
2021/10/14 16:46:25;;;;;;;12.70;7.40;;;;;;;9.18;72.48;100147.95;230923;1192;140595;-67
2021/10/14 16:51:30;;;;;;;14.60;9.00;;;;;;;9.17;72.35;100145.46;231037;1192;139886;-67
2021/10/14 16:56:34;;;;;;;12.90;7.00;;;;;;;9.20;72.65;100136.26;230737;1191;139646;-70
2021/10/14 17:01:39;;;;;;;9.00;6.20;;;;;;;9.21;72.62;100137.72;230352;1191;139143;-67
2021/10/14 17:06:45;;;;;;;12.00;7.30;;;;;;;9.19;72.74;100136.23;228731;1192;139914;-68
2021/10/14 17:11:52;;;;;;;11.80;7.50;;;;;;;9.23;72.96;100134.32;230580;1192;139792;-68
2021/10/14 17:16:58;;;;;;;11.90;7.50;;;;;;;9.26;73.10;100128.77;229028;1192;140334;-69
2021/10/14 17:37:57;;;;;;;10.50;6.10;;;;;;;9.11;73.56;100121.77;228070;1193;139242;-71
2021/10/14 17:43:12;;;;;;;13.50;6.80;;;;;;;9.12;73.79;100123.98;227929;1193;140019;-70
2021/10/14 17:48:18;;;;;;;10.00;6.60;;;;;;;9.10;73.75;100121.58;228967;1192;140186;-69
2021/10/14 17:53:23;;;;;;;11.50;7.10;;;;;;;9.07;73.71;100117.88;229562;1191;141259;-71
2021/10/14 17:58:27;;;;;;;11.60;7.30;;;;;;;9.03;73.83;100116.17;228371;1193;140694;-71
2021/10/14 18:03:43;;;;;;;9.20;6.70;;;;;;;9.00;74.09;100116.77;229040;1192;140266;-69
2021/10/14 18:40:46;;;;;;;15.30;9.10;;;;;;;8.81;75.13;100090.86;231141;1192;140626;-68
2021/10/14 18:45:57;;;;;;;9.00;5.80;;;;;;;8.80;75.18;100088.65;230778;1192;141127;-69
2021/10/14 18:51:04;;;;;;;14.80;8.50;;;;;;;8.76;75.22;100089.45;230799;1192;140326;-69
2021/10/14 18:56:14;;;;;;;15.10;8.20;;;;;;;8.75;75.42;100091.21;229700;1192;141378;-70
2021/10/14 19:01:27;;;;;;;14.80;8.90;;;;;;;8.83;75.48;100087.54;230838;1192;141010;-69
2021/10/14 19:06:35;;;;;;;15.90;9.00;;;;;;;8.83;75.89;100084.26;230542;1187;140123;-71
2021/10/14 19:17:11;;;;;;;12.50;9.70;;;;;;;8.75;75.92;100078.54;229627;1192;140400;-72
2021/10/14 20:21:20;;;;;;;17.90;10.70;;;;;;;8.68;77.27;100068.96;230026;1192;139168;-66
2021/10/14 20:26:30;;;;;;;12.40;9.50;;;;;;;8.70;77.28;100063.07;229368;1192;142480;-66
2021/10/14 20:31:37;;;;;;;14.90;9.90;;;;;;;8.69;77.61;100062.63;231229;1192;140505;-69
2021/10/14 20:36:45;;;;;;;14.00;9.60;;;;;;;8.65;77.54;100058.76;230506;1192;139783;-66
2021/10/14 20:41:50;;;;;;;13.80;9.80;;;;;;;8.67;77.56;100052.58;231098;1185;139840;-69
2021/10/14 20:46:56;;;;;;;10.40;6.80;;;;;;;8.66;77.63;100046.89;230606;1192;140562;-68
2021/10/14 20:52:07;;;;;;;15.50;10.00;;;;;;;8.62;78.03;100041.27;231117;1191;141351;-72
2021/10/14 21:07:40;;;;;;;15.50;11.00;;;;;;;8.54;78.39;100032.60;228669;1192;140946;-69
2021/10/14 21:12:45;;;;;;;13.00;8.20;;;;;;;8.63;78.59;100030.08;230231;1191;140294;-69
2021/10/14 21:17:53;;;;;;;14.40;10.60;;;;;;;8.63;78.49;100029.29;230559;1191;139634;-69
2021/10/14 21:22:58;;;;;;;12.80;9.40;;;;;;;8.60;78.74;100019.83;229616;1192;139971;-68
2021/10/14 21:38:48;;;;;;;10.90;7.80;;;;;;;8.70;78.90;100015.75;229851;1192;139908;-69
2021/10/14 21:43:54;;;;;;;14.50;8.20;;;;;;;8.66;79.10;100015.09;229069;1192;139812;-69
2021/10/14 21:49:00;;;;;;;14.50;9.40;;;;;;;8.71;79.12;100017.42;229573;1192;140472;-66
2021/10/14 21:54:04;;;;;;;13.80;7.80;;;;;;;8.75;79.36;100015.52;230584;1192;141615;-70
2021/10/14 21:59:09;;;;;;;17.30;9.50;;;;;;;8.72;79.57;100008.14;229276;1191;141753;-67
2021/10/14 22:04:22;;;;;;;11.20;8.30;;;;;;;8.78;79.43;100006.30;230133;1192;140740;-68
2021/10/14 22:09:28;;;;;;;12.50;9.80;;;;;;;8.74;79.38;100006.98;228800;1192;204635;-67
2021/10/14 22:14:34;;;;;;;13.90;9.40;;;;;;;8.73;79.66;100007.07;229631;1192;141628;-68
2021/10/14 22:19:38;;;;;;;9.50;8.10;;;;;;;8.81;79.68;100005.02;229542;1192;141327;-69
2021/10/14 22:24:43;;;;;;;14.50;8.80;;;;;;;8.84;79.72;100002.67;228972;1192;140776;-67
2021/10/14 22:29:50;;;;;;;11.30;8.50;;;;;;;8.79;79.81;99999.79;230626;1191;139271;-68
2021/10/14 22:34:55;;;;;;;12.40;9.70;;;;;;;8.78;79.92;100003.06;230453;1192;139686;-67
2021/10/14 22:40:00;;;;;;;5.80;3.90;;;;;;;8.81;80.31;99996.23;230476;1192;139893;-69
2021/10/14 22:45:05;;;;;;;13.40;10.70;;;;;;;8.83;80.28;99989.66;229940;1192;140240;-67
2021/10/14 22:50:12;;;;;;;16.40;11.30;;;;;;;8.84;80.18;99982.91;231089;1191;140318;-70
2021/10/14 22:55:16;;;;;;;17.40;11.40;;;;;;;8.87;80.45;99980.73;231075;1191;139423;-72
2021/10/14 23:00:20;;;;;;;19.30;11.60;;;;;;;8.94;80.25;99985.86;231274;1191;139928;-73
2021/10/14 23:05:25;;;;;;;18.00;13.50;;;;;;;9.01;80.54;99985.29;230807;1192;140608;-74
2021/10/14 23:10:30;;;;;;;20.50;12.60;;;;;;;9.07;80.57;99978.23;231425;1191;140661;-74
2021/10/14 23:15:33;;;;;;;17.10;12.70;;;;;;;9.11;80.57;99974.33;230808;1191;140684;-72
2021/10/14 23:20:38;;;;;;;20.10;13.30;;;;;;;9.19;80.48;99965.35;228811;1191;139662;-72
2021/10/14 23:25:44;;;;;;;18.50;14.50;;;;;;;9.21;80.59;99959.76;229811;1191;139430;-74
2021/10/14 23:30:50;;;;;;;20.30;12.30;;;;;;;9.17;80.67;99958.17;228601;1191;142740;-69
2021/10/14 23:35:54;;;;;;;20.60;13.30;;;;;;;9.21;80.61;99956.73;229426;1191;140347;-71
2021/10/14 23:40:59;;;;;;;24.10;16.90;;;;;;;9.25;80.68;99955.30;228592;1192;140496;-71
2021/10/14 23:46:05;;;;;;;18.50;14.40;;;;;;;9.26;80.75;99955.45;228841;1192;140684;-73
2021/10/14 23:51:09;;;;;;;19.00;14.20;;;;;;;9.28;80.80;99951.22;228793;1191;139728;-70
2021/10/14 23:56:14;;;;;;;26.30;16.10;;;;;;;9.27;80.81;99945.91;228667;1192;140455;-69
